PWSweather.com
Personal Weather Stations
Station Observations

NjegusiYU

Lat: 42.43746, Lon: 18.822765

Elevation: 856

Station Type: Davis Vantage Vue

http://pljusak.com/njegusi/index.html

Latest ConditionsUpdated 9:40:00 PM GMT+01:01 Wednesday, Apr 24, 2019
Currently Today's Max Today's Min Today's Average
Temperature 47.3°F8.5°C 66.9°F19.4°C 47.3°F8.5°C 57.6°F14.2°C
Dew Point 43.6°F6.4°C 50.9°F10.5°C 41.7°F5.4°C 46.7°F8.2°C
Winds Calm Calm 6.0 mph -9.7 kmh - - 2.2 mph 3.5 kmh
Wind Gusts 1.0 mph1.6 kmh 16.0 mph25.7 kmh - -
Humidity 87% 97% 42% 70%
Pressure 27.31 in924.8 mb 27.31 in924.8 mb 27.20 in921.1 mb -
Precipitation - 0.03 in0.8 mm - -
Hour Temp Dew Point Humidity Winds Wind Gusts Pressure Precip Precip Rate Daily Precip Total
09:40 PM 47.3°F8.5°C 43.6°F6.4°C 87% Calm Calm 1.0 mph1.6 kmh 27.31 in924.8 mb 0.00 in0.0 mm 0.00 in0.0 mm 0.03 in0.8 mm
09:30 PM 47.4°F8.6°C 43.1°F6.2°C 85% Calm Calm 2.0 mph3.2 kmh 27.31 in924.8 mb 0.00 in0.0 mm 0.00 in0.0 mm 0.03 in0.8 mm
09:20 PM 47.7°F8.7°C 43.4°F6.3°C 85% Calm Calm 1.0 mph1.6 kmh 27.31 in924.8 mb 0.00 in0.0 mm 0.00 in0.0 mm 0.03 in0.8 mm
09:10 PM 48.5°F9.2°C 44.5°F6.9°C 86% Calm Calm -- 27.30 in924.5 mb 0.00 in0.0 mm 0.00 in0.0 mm 0.03 in0.8 mm
09:00 PM 48.4°F9.1°C 44.4°F6.9°C 86% Calm Calm 2.0 mph3.2 kmh 27.31 in924.8 mb 0.00 in0.0 mm 0.00 in0.0 mm 0.03 in0.8 mm
08:50 PM 47.8°F8.8°C 43.2°F6.2°C 84% Calm Calm -- 27.31 in924.8 mb 0.00 in0.0 mm 0.00 in0.0 mm 0.03 in0.8 mm
08:40 PM 48.8°F9.3°C 43.9°F6.6°C 83% Calm Calm -- 27.31 in924.8 mb 0.00 in0.0 mm 0.00 in0.0 mm 0.03 in0.8 mm
08:30 PM 49.7°F9.8°C 43.8°F6.6°C 80% Calm Calm 1.0 mph1.6 kmh 27.31 in924.8 mb 0.00 in0.0 mm 0.00 in0.0 mm 0.03 in0.8 mm
08:20 PM 50.7°F10.4°C 44.1°F6.7°C 78% Calm Calm 1.0 mph1.6 kmh 27.30 in924.5 mb 0.00 in0.0 mm 0.00 in0.0 mm 0.03 in0.8 mm
08:10 PM 52.2°F11.2°C 44.5°F6.9°C 75% Calm Calm 1.0 mph1.6 kmh 27.30 in924.5 mb 0.00 in0.0 mm 0.00 in0.0 mm 0.03 in0.8 mm
08:00 PM 52.8°F11.6°C 44.4°F6.9°C 73% Calm Calm 1.0 mph1.6 kmh 27.30 in924.5 mb 0.00 in0.0 mm 0.00 in0.0 mm 0.03 in0.8 mm
07:50 PM 54.0°F12.2°C 44.8°F7.1°C 71% 1.0 mph NNE1.6 kmh NNE 3.0 mph4.8 kmh 27.30 in924.5 mb 0.00 in0.0 mm 0.00 in0.0 mm 0.03 in0.8 mm
07:40 PM 53.9°F12.2°C 44.7°F7.1°C 71% Calm Calm 2.0 mph3.2 kmh 27.29 in924.1 mb 0.00 in0.0 mm 0.00 in0.0 mm 0.03 in0.8 mm
07:30 PM 54.4°F12.4°C 44.8°F7.1°C 70% Calm Calm -- 27.29 in924.1 mb 0.00 in0.0 mm 0.00 in0.0 mm 0.03 in0.8 mm
07:20 PM 56.3°F13.5°C 44.7°F7.1°C 65% 1.0 mph E1.6 kmh E 3.0 mph4.8 kmh 27.29 in924.1 mb 0.00 in0.0 mm 0.00 in0.0 mm 0.03 in0.8 mm
07:10 PM 57.2°F14.0°C 44.3°F6.8°C 62% 1.0 mph W1.6 kmh W 6.0 mph9.7 kmh 27.28 in923.8 mb 0.00 in0.0 mm 0.00 in0.0 mm 0.03 in0.8 mm
07:00 PM 57.4°F14.1°C 44.1°F6.7°C 61% 1.0 mph ENE1.6 kmh ENE 2.0 mph3.2 kmh 27.28 in923.8 mb 0.00 in0.0 mm 0.00 in0.0 mm 0.03 in0.8 mm
06:50 PM 57.8°F14.3°C 44.0°F6.7°C 60% 2.0 mph W3.2 kmh W 7.0 mph11.3 kmh 27.28 in923.8 mb 0.00 in0.0 mm 0.00 in0.0 mm 0.03 in0.8 mm
06:40 PM 57.8°F14.3°C 44.0°F6.7°C 60% 1.0 mph 1.6 kmh 5.0 mph8.0 kmh 27.27 in923.5 mb 0.00 in0.0 mm 0.00 in0.0 mm 0.03 in0.8 mm
06:30 PM 57.9°F14.4°C 44.1°F6.7°C 60% 1.0 mph NW1.6 kmh NW 5.0 mph8.0 kmh 27.27 in923.5 mb 0.00 in0.0 mm 0.00 in0.0 mm 0.03 in0.8 mm
06:20 PM 57.5°F14.2°C 43.3°F6.3°C 59% 1.0 mph NW1.6 kmh NW 3.0 mph4.8 kmh 27.27 in923.5 mb 0.00 in0.0 mm 0.00 in0.0 mm 0.03 in0.8 mm
06:10 PM 57.8°F14.3°C 44.0°F6.7°C 60% Calm Calm 1.0 mph1.6 kmh 27.27 in923.5 mb 0.00 in0.0 mm 0.00 in0.0 mm 0.03 in0.8 mm
06:00 PM 58.6°F14.8°C 43.4°F6.3°C 57% Calm Calm 2.0 mph3.2 kmh 27.27 in923.5 mb 0.00 in0.0 mm 0.00 in0.0 mm 0.03 in0.8 mm
05:50 PM 58.9°F14.9°C 42.8°F6.0°C 55% 1.0 mph SE1.6 kmh SE 5.0 mph8.0 kmh 27.27 in923.5 mb 0.00 in0.0 mm 0.00 in0.0 mm 0.03 in0.8 mm
05:40 PM 59.3°F15.2°C 42.7°F5.9°C 54% 1.0 mph E1.6 kmh E 4.0 mph6.4 kmh 27.27 in923.5 mb 0.00 in0.0 mm 0.00 in0.0 mm 0.03 in0.8 mm
05:30 PM 59.7°F15.4°C 42.0°F5.6°C 52% 1.0 mph SE1.6 kmh SE 4.0 mph6.4 kmh 27.27 in923.5 mb 0.00 in0.0 mm 0.00 in0.0 mm 0.03 in0.8 mm
05:20 PM 60.0°F15.6°C 43.8°F6.6°C 55% Calm Calm 3.0 mph4.8 kmh 27.27 in923.5 mb 0.00 in0.0 mm 0.00 in0.0 mm 0.03 in0.8 mm
05:10 PM 60.5°F15.8°C 42.3°F5.7°C 51% 1.0 mph WNW1.6 kmh WNW 4.0 mph6.4 kmh 27.27 in923.5 mb 0.00 in0.0 mm 0.00 in0.0 mm 0.03 in0.8 mm
05:00 PM 60.8°F16.0°C 42.6°F5.9°C 51% 1.0 mph WNW1.6 kmh WNW 4.0 mph6.4 kmh 27.27 in923.5 mb 0.00 in0.0 mm 0.00 in0.0 mm 0.03 in0.8 mm
04:50 PM 61.3°F16.3°C 42.0°F5.6°C 49% 1.0 mph SSW1.6 kmh SSW 6.0 mph9.7 kmh 27.27 in923.5 mb 0.00 in0.0 mm 0.00 in0.0 mm 0.03 in0.8 mm
04:40 PM 62.2°F16.8°C 41.7°F5.4°C 47% 1.0 mph SE1.6 kmh SE 3.0 mph4.8 kmh 27.27 in923.5 mb 0.00 in0.0 mm 0.00 in0.0 mm 0.03 in0.8 mm
04:30 PM 63.1°F17.3°C 42.0°F5.6°C 46% 1.0 mph SE1.6 kmh SE 5.0 mph8.0 kmh 27.27 in923.5 mb 0.00 in0.0 mm 0.00 in0.0 mm 0.03 in0.8 mm
04:20 PM 63.9°F17.7°C 42.7°F5.9°C 46% 2.0 mph SE3.2 kmh SE 9.0 mph14.5 kmh 27.27 in923.5 mb 0.00 in0.0 mm 0.00 in0.0 mm 0.03 in0.8 mm
04:10 PM 64.3°F17.9°C 41.9°F5.5°C 44% 1.0 mph ESE1.6 kmh ESE 4.0 mph6.4 kmh 27.27 in923.5 mb 0.00 in0.0 mm 0.00 in0.0 mm 0.03 in0.8 mm
04:00 PM 64.3°F17.9°C 41.9°F5.5°C 44% 2.0 mph SSW3.2 kmh SSW 5.0 mph8.0 kmh 27.27 in923.5 mb 0.00 in0.0 mm 0.00 in0.0 mm 0.03 in0.8 mm
03:50 PM 64.6°F18.1°C 42.2°F5.7°C 44% 3.0 mph SE4.8 kmh SE 13.0 mph20.9 kmh 27.27 in923.5 mb 0.00 in0.0 mm 0.00 in0.0 mm 0.03 in0.8 mm
03:40 PM 65.0°F18.3°C 42.0°F5.6°C 43% 2.0 mph NE3.2 kmh NE 10.0 mph16.1 kmh 27.27 in923.5 mb 0.00 in0.0 mm 0.00 in0.0 mm 0.03 in0.8 mm
03:30 PM 65.0°F18.3°C 42.6°F5.9°C 44% 2.0 mph E3.2 kmh E 9.0 mph14.5 kmh 27.27 in923.5 mb 0.00 in0.0 mm 0.00 in0.0 mm 0.03 in0.8 mm
03:20 PM 65.1°F18.4°C 42.6°F5.9°C 44% 3.0 mph NNW4.8 kmh NNW 10.0 mph16.1 kmh 27.27 in923.5 mb 0.00 in0.0 mm 0.00 in0.0 mm 0.03 in0.8 mm
03:10 PM 65.4°F18.6°C 42.3°F5.7°C 43% 3.0 mph NNE4.8 kmh NNE 13.0 mph20.9 kmh 27.27 in923.5 mb 0.00 in0.0 mm 0.00 in0.0 mm 0.03 in0.8 mm
03:00 PM 66.2°F19.0°C 42.4°F5.8°C 42% 3.0 mph SE4.8 kmh SE 6.0 mph9.7 kmh 27.26 in923.1 mb 0.00 in0.0 mm 0.00 in0.0 mm 0.03 in0.8 mm
02:50 PM 66.7°F19.3°C 44.7°F7.1°C 45% 2.0 mph SSE3.2 kmh SSE 9.0 mph14.5 kmh 27.27 in923.5 mb 0.00 in0.0 mm 0.00 in0.0 mm 0.03 in0.8 mm
02:40 PM 66.1°F18.9°C 45.3°F7.4°C 47% 3.0 mph SE4.8 kmh SE 8.0 mph12.9 kmh 27.27 in923.5 mb 0.00 in0.0 mm 0.00 in0.0 mm 0.03 in0.8 mm
02:30 PM 66.4°F19.1°C 44.4°F6.9°C 45% 2.0 mph SE3.2 kmh SE 7.0 mph11.3 kmh 27.27 in923.5 mb 0.00 in0.0 mm 0.00 in0.0 mm 0.03 in0.8 mm
02:20 PM 66.0°F18.9°C 44.6°F7.0°C 46% 2.0 mph SE3.2 kmh SE 5.0 mph8.0 kmh 27.27 in923.5 mb 0.00 in0.0 mm 0.00 in0.0 mm 0.03 in0.8 mm
02:10 PM 65.7°F18.7°C 44.3°F6.8°C 46% 2.0 mph SSE3.2 kmh SSE 6.0 mph9.7 kmh 27.27 in923.5 mb 0.00 in0.0 mm 0.00 in0.0 mm 0.03 in0.8 mm
02:00 PM 66.3°F19.1°C 43.7°F6.5°C 44% 2.0 mph SW3.2 kmh SW 7.0 mph11.3 kmh 27.27 in923.5 mb 0.00 in0.0 mm 0.00 in0.0 mm 0.03 in0.8 mm
01:50 PM 65.5°F18.6°C 44.2°F6.8°C 46% 3.0 mph SSW4.8 kmh SSW 11.0 mph17.7 kmh 27.28 in923.8 mb 0.00 in0.0 mm 0.00 in0.0 mm 0.03 in0.8 mm
01:40 PM 66.0°F18.9°C 46.3°F7.9°C 49% 3.0 mph SSW4.8 kmh SSW 12.0 mph19.3 kmh 27.28 in923.8 mb 0.00 in0.0 mm 0.00 in0.0 mm 0.03 in0.8 mm
01:30 PM 65.7°F18.7°C 44.3°F6.8°C 46% 2.0 mph SSE3.2 kmh SSE 6.0 mph9.7 kmh 27.28 in923.8 mb 0.00 in0.0 mm 0.00 in0.0 mm 0.03 in0.8 mm
01:20 PM 66.3°F19.1°C 47.1°F8.4°C 50% 3.0 mph SSE4.8 kmh SSE 7.0 mph11.3 kmh 27.27 in923.5 mb 0.00 in0.0 mm 0.00 in0.0 mm 0.03 in0.8 mm
01:10 PM 65.7°F18.7°C 47.6°F8.7°C 52% 3.0 mph SSE4.8 kmh SSE 7.0 mph11.3 kmh 27.27 in923.5 mb 0.00 in0.0 mm 0.00 in0.0 mm 0.03 in0.8 mm
01:00 PM 65.9°F18.8°C 44.5°F6.9°C 46% 3.0 mph SE4.8 kmh SE 8.0 mph12.9 kmh 27.27 in923.5 mb 0.00 in0.0 mm 0.00 in0.0 mm 0.03 in0.8 mm
12:50 PM 65.9°F18.8°C 45.6°F7.6°C 48% 3.0 mph SE4.8 kmh SE 8.0 mph12.9 kmh 27.27 in923.5 mb 0.00 in0.0 mm 0.00 in0.0 mm 0.03 in0.8 mm
12:40 PM 66.2°F19.0°C 45.4°F7.4°C 47% 2.0 mph SSW3.2 kmh SSW 8.0 mph12.9 kmh 27.27 in923.5 mb 0.00 in0.0 mm 0.00 in0.0 mm 0.03 in0.8 mm
12:30 PM 66.1°F18.9°C 45.8°F7.7°C 48% 2.0 mph SE3.2 kmh SE 9.0 mph14.5 kmh 27.27 in923.5 mb 0.00 in0.0 mm 0.00 in0.0 mm 0.03 in0.8 mm
12:20 PM 66.9°F19.4°C 45.4°F7.4°C 46% 2.0 mph SE3.2 kmh SE 6.0 mph9.7 kmh 27.27 in923.5 mb 0.00 in0.0 mm 0.00 in0.0 mm 0.03 in0.8 mm
12:10 PM 66.1°F18.9°C 46.9°F8.3°C 50% 3.0 mph ESE4.8 kmh ESE 8.0 mph12.9 kmh 27.27 in923.5 mb 0.00 in0.0 mm 0.00 in0.0 mm 0.03 in0.8 mm
12:00 PM 66.9°F19.4°C 49.2°F9.6°C 53% 2.0 mph ESE3.2 kmh ESE 6.0 mph9.7 kmh 27.27 in923.5 mb 0.00 in0.0 mm 0.00 in0.0 mm 0.03 in0.8 mm
11:50 AM 66.3°F19.1°C 47.1°F8.4°C 50% 2.0 mph SE3.2 kmh SE 6.0 mph9.7 kmh 27.27 in923.5 mb 0.00 in0.0 mm 0.00 in0.0 mm 0.03 in0.8 mm
11:40 AM 66.3°F19.1°C 47.1°F8.4°C 50% 2.0 mph SSE3.2 kmh SSE 6.0 mph9.7 kmh 27.27 in923.5 mb 0.00 in0.0 mm 0.00 in0.0 mm 0.03 in0.8 mm
11:30 AM 66.6°F19.2°C 48.9°F9.4°C 53% 2.0 mph SW3.2 kmh SW 11.0 mph17.7 kmh 27.27 in923.5 mb 0.00 in0.0 mm 0.00 in0.0 mm 0.03 in0.8 mm
11:20 AM 65.4°F18.6°C 48.8°F9.3°C 55% 4.0 mph SE6.4 kmh SE 8.0 mph12.9 kmh 27.27 in923.5 mb 0.00 in0.0 mm 0.00 in0.0 mm 0.03 in0.8 mm
11:10 AM 65.4°F18.6°C 48.8°F9.3°C 55% 2.0 mph SE3.2 kmh SE 7.0 mph11.3 kmh 27.27 in923.5 mb 0.00 in0.0 mm 0.00 in0.0 mm 0.03 in0.8 mm
11:00 AM 65.1°F18.4°C 47.0°F8.3°C 52% 4.0 mph SSE6.4 kmh SSE 10.0 mph16.1 kmh 27.27 in923.5 mb 0.00 in0.0 mm 0.00 in0.0 mm 0.03 in0.8 mm
10:50 AM 65.9°F18.8°C 48.8°F9.3°C 54% 2.0 mph SE3.2 kmh SE 5.0 mph8.0 kmh 27.27 in923.5 mb 0.00 in0.0 mm 0.00 in0.0 mm 0.03 in0.8 mm
10:40 AM 64.8°F18.2°C 49.2°F9.6°C 57% 3.0 mph SSE4.8 kmh SSE 8.0 mph12.9 kmh 27.27 in923.5 mb 0.00 in0.0 mm 0.00 in0.0 mm 0.03 in0.8 mm
10:30 AM 64.5°F18.1°C 49.4°F9.7°C 58% 3.0 mph SE4.8 kmh SE 8.0 mph12.9 kmh 27.27 in923.5 mb 0.00 in0.0 mm 0.00 in0.0 mm 0.03 in0.8 mm
10:20 AM 65.1°F18.4°C 50.0°F10.0°C 58% 3.0 mph SE4.8 kmh SE 6.0 mph9.7 kmh 27.27 in923.5 mb 0.00 in0.0 mm 0.00 in0.0 mm 0.03 in0.8 mm
10:10 AM 64.3°F17.9°C 50.6°F10.3°C 61% 3.0 mph SSE4.8 kmh SSE 8.0 mph12.9 kmh 27.27 in923.5 mb 0.00 in0.0 mm 0.00 in0.0 mm 0.03 in0.8 mm
10:00 AM 63.6°F17.6°C 48.5°F9.2°C 58% 3.0 mph SE4.8 kmh SE 8.0 mph12.9 kmh 27.27 in923.5 mb 0.00 in0.0 mm 0.00 in0.0 mm 0.03 in0.8 mm
09:50 AM 63.6°F17.6°C 48.1°F8.9°C 57% 4.0 mph SE6.4 kmh SE 8.0 mph12.9 kmh 27.27 in923.5 mb 0.00 in0.0 mm 0.00 in0.0 mm 0.03 in0.8 mm
09:40 AM 63.6°F17.6°C 49.9°F9.9°C 61% 3.0 mph SE4.8 kmh SE 7.0 mph11.3 kmh 27.27 in923.5 mb 0.00 in0.0 mm 0.00 in0.0 mm 0.03 in0.8 mm
09:30 AM 62.9°F17.2°C 48.3°F9.1°C 59% 2.0 mph SE3.2 kmh SE 7.0 mph11.3 kmh 27.27 in923.5 mb 0.00 in0.0 mm 0.00 in0.0 mm 0.03 in0.8 mm
09:20 AM 63.4°F17.4°C 48.8°F9.3°C 59% 3.0 mph SSE4.8 kmh SSE 9.0 mph14.5 kmh 27.27 in923.5 mb 0.00 in0.0 mm 0.00 in0.0 mm 0.03 in0.8 mm
09:10 AM 63.1°F17.3°C 49.9°F9.9°C 62% 2.0 mph SE3.2 kmh SE 6.0 mph9.7 kmh 27.27 in923.5 mb 0.00 in0.0 mm 0.00 in0.0 mm 0.03 in0.8 mm
09:00 AM 62.4°F16.9°C 50.9°F10.5°C 66% 2.0 mph ESE3.2 kmh ESE 5.0 mph8.0 kmh 27.27 in923.5 mb 0.00 in0.0 mm 0.00 in0.0 mm 0.03 in0.8 mm
08:50 AM 61.6°F16.4°C 50.1°F10.1°C 66% 1.0 mph SE1.6 kmh SE 5.0 mph8.0 kmh 27.26 in923.1 mb 0.00 in0.0 mm 0.00 in0.0 mm 0.03 in0.8 mm
08:40 AM 61.2°F16.2°C 49.3°F9.6°C 65% 2.0 mph SW3.2 kmh SW 8.0 mph12.9 kmh 27.26 in923.1 mb 0.00 in0.0 mm 0.00 in0.0 mm 0.03 in0.8 mm
08:30 AM 60.8°F16.0°C 48.5°F9.2°C 64% 3.0 mph SE4.8 kmh SE 6.0 mph9.7 kmh 27.26 in923.1 mb 0.00 in0.0 mm 0.00 in0.0 mm 0.03 in0.8 mm
08:20 AM 60.2°F15.7°C 50.4°F10.2°C 70% 2.0 mph SE3.2 kmh SE 7.0 mph11.3 kmh 27.26 in923.1 mb 0.00 in0.0 mm 0.00 in0.0 mm 0.03 in0.8 mm
08:10 AM 59.1°F15.1°C 50.1°F10.1°C 72% 2.0 mph SSE3.2 kmh SSE 7.0 mph11.3 kmh 27.26 in923.1 mb 0.00 in0.0 mm 0.00 in0.0 mm 0.03 in0.8 mm
08:00 AM 57.2°F14.0°C 49.7°F9.8°C 76% 1.0 mph NNE1.6 kmh NNE 8.0 mph12.9 kmh 27.26 in923.1 mb 0.00 in0.0 mm 0.00 in0.0 mm 0.03 in0.8 mm
07:50 AM 56.7°F13.7°C 48.5°F9.2°C 74% 2.0 mph ENE3.2 kmh ENE 4.0 mph6.4 kmh 27.26 in923.1 mb 0.00 in0.0 mm 0.00 in0.0 mm 0.03 in0.8 mm
07:40 AM 57.1°F13.9°C 49.3°F9.6°C 75% 2.0 mph ENE3.2 kmh ENE 8.0 mph12.9 kmh 27.26 in923.1 mb 0.00 in0.0 mm 0.00 in0.0 mm 0.03 in0.8 mm
07:30 AM 56.7°F13.7°C 48.9°F9.4°C 75% 2.0 mph NE3.2 kmh NE 6.0 mph9.7 kmh 27.26 in923.1 mb 0.00 in0.0 mm 0.00 in0.0 mm 0.03 in0.8 mm
07:20 AM 56.7°F13.7°C 48.1°F8.9°C 73% 2.0 mph NE3.2 kmh NE 5.0 mph8.0 kmh 27.26 in923.1 mb 0.00 in0.0 mm 0.00 in0.0 mm 0.03 in0.8 mm
07:10 AM 56.7°F13.7°C 48.9°F9.4°C 75% 1.0 mph ENE1.6 kmh ENE 5.0 mph8.0 kmh 27.26 in923.1 mb 0.00 in0.0 mm 0.00 in0.0 mm 0.03 in0.8 mm
07:00 AM 55.4°F13.0°C 48.7°F9.3°C 78% 1.0 mph ENE1.6 kmh ENE 5.0 mph8.0 kmh 27.26 in923.1 mb 0.00 in0.0 mm 0.00 in0.0 mm 0.03 in0.8 mm
06:50 AM 54.6°F12.6°C 48.2°F9.0°C 79% 2.0 mph NE3.2 kmh NE 5.0 mph8.0 kmh 27.25 in922.8 mb 0.00 in0.0 mm 0.00 in0.0 mm 0.03 in0.8 mm
06:40 AM 53.9°F12.2°C 47.9°F8.8°C 80% 2.0 mph NE3.2 kmh NE 8.0 mph12.9 kmh 27.25 in922.8 mb 0.00 in0.0 mm 0.00 in0.0 mm 0.03 in0.8 mm
06:30 AM 53.2°F11.8°C 47.8°F8.8°C 82% 2.0 mph NNE3.2 kmh NNE 7.0 mph11.3 kmh 27.25 in922.8 mb 0.00 in0.0 mm 0.00 in0.0 mm 0.03 in0.8 mm
06:20 AM 52.5°F11.4°C 47.8°F8.8°C 84% 2.0 mph NNE3.2 kmh NNE 6.0 mph9.7 kmh 27.25 in922.8 mb 0.00 in0.0 mm 0.00 in0.0 mm 0.03 in0.8 mm
06:10 AM 51.8°F11.0°C 47.7°F8.7°C 86% 1.0 mph 1.6 kmh 2.0 mph3.2 kmh 27.25 in922.8 mb 0.00 in0.0 mm 0.00 in0.0 mm 0.03 in0.8 mm
06:00 AM 51.4°F10.8°C 48.0°F8.9°C 88% Calm Calm 3.0 mph4.8 kmh 27.25 in922.8 mb 0.00 in0.0 mm 0.00 in0.0 mm 0.03 in0.8 mm
05:50 AM 51.0°F10.6°C 47.9°F8.8°C 89% 1.0 mph 1.6 kmh 4.0 mph6.4 kmh 27.25 in922.8 mb 0.00 in0.0 mm 0.00 in0.0 mm 0.03 in0.8 mm
05:40 AM 50.7°F10.4°C 47.9°F8.8°C 90% 1.0 mph 1.6 kmh 3.0 mph4.8 kmh 27.25 in922.8 mb 0.00 in0.0 mm 0.00 in0.0 mm 0.03 in0.8 mm
05:30 AM 50.3°F10.2°C 48.1°F8.9°C 92% 1.0 mph 1.6 kmh 4.0 mph6.4 kmh 27.25 in922.8 mb 0.00 in0.0 mm 0.00 in0.0 mm 0.03 in0.8 mm
05:20 AM 50.4°F10.2°C 48.2°F9.0°C 92% Calm Calm 2.0 mph3.2 kmh 27.24 in922.5 mb 0.00 in0.0 mm 0.00 in0.0 mm 0.03 in0.8 mm
05:10 AM 50.5°F10.3°C 48.0°F8.9°C 91% Calm Calm 1.0 mph1.6 kmh 27.24 in922.5 mb 0.00 in0.0 mm 0.00 in0.0 mm 0.03 in0.8 mm
05:00 AM 51.0°F10.6°C 48.2°F9.0°C 90% 1.0 mph 1.6 kmh 5.0 mph8.0 kmh 27.23 in922.1 mb 0.00 in0.0 mm 0.00 in0.0 mm 0.03 in0.8 mm
04:50 AM 50.8°F10.4°C 48.0°F8.9°C 90% 2.0 mph 3.2 kmh 7.0 mph11.3 kmh 27.23 in922.1 mb 0.00 in0.0 mm 0.00 in0.0 mm 0.03 in0.8 mm
04:40 AM 50.6°F10.3°C 48.1°F8.9°C 91% 2.0 mph WNW3.2 kmh WNW 7.0 mph11.3 kmh 27.22 in921.8 mb 0.00 in0.0 mm 0.00 in0.0 mm 0.03 in0.8 mm
04:30 AM 50.7°F10.4°C 48.2°F9.0°C 91% 2.0 mph SW3.2 kmh SW 9.0 mph14.5 kmh 27.23 in922.1 mb 0.00 in0.0 mm 0.00 in0.0 mm 0.03 in0.8 mm
04:20 AM 50.6°F10.3°C 48.1°F8.9°C 91% 2.0 mph WNW3.2 kmh WNW 5.0 mph8.0 kmh 27.22 in921.8 mb 0.00 in0.0 mm 0.00 in0.0 mm 0.03 in0.8 mm
04:10 AM 50.6°F10.3°C 48.1°F8.9°C 91% 2.0 mph WNW3.2 kmh WNW 8.0 mph12.9 kmh 27.22 in921.8 mb 0.00 in0.0 mm 0.00 in0.0 mm 0.03 in0.8 mm
04:00 AM 50.6°F10.3°C 48.4°F9.1°C 92% 4.0 mph SSE6.4 kmh SSE 10.0 mph16.1 kmh 27.22 in921.8 mb 0.00 in0.0 mm 0.00 in0.0 mm 0.03 in0.8 mm
03:50 AM 50.5°F10.3°C 48.3°F9.1°C 92% 4.0 mph SSE6.4 kmh SSE 13.0 mph20.9 kmh 27.22 in921.8 mb 0.00 in0.0 mm 0.00 in0.0 mm 0.03 in0.8 mm
03:40 AM 50.5°F10.3°C 48.6°F9.2°C 93% 5.0 mph SE8.0 kmh SE 12.0 mph19.3 kmh 27.22 in921.8 mb 0.00 in0.0 mm 0.00 in0.0 mm 0.03 in0.8 mm
03:30 AM 50.4°F10.2°C 48.7°F9.3°C 94% 5.0 mph SSE8.0 kmh SSE 14.0 mph22.5 kmh 27.22 in921.8 mb 0.00 in0.0 mm 0.00 in0.0 mm 0.03 in0.8 mm
03:20 AM 50.4°F10.2°C 49.0°F9.4°C 95% 4.0 mph SSE6.4 kmh SSE 12.0 mph19.3 kmh 27.22 in921.8 mb 0.00 in0.0 mm 0.00 in0.0 mm 0.03 in0.8 mm
03:10 AM 50.4°F10.2°C 49.0°F9.4°C 95% 6.0 mph SSE9.7 kmh SSE 16.0 mph25.7 kmh 27.22 in921.8 mb 0.00 in0.0 mm 0.00 in0.0 mm 0.03 in0.8 mm
03:00 AM 50.5°F10.3°C 49.4°F9.7°C 96% 4.0 mph SE6.4 kmh SE 12.0 mph19.3 kmh 27.22 in921.8 mb 0.00 in0.0 mm 0.00 in0.0 mm 0.03 in0.8 mm
02:50 AM 50.5°F10.3°C 49.4°F9.7°C 96% 4.0 mph SE6.4 kmh SE 11.0 mph17.7 kmh 27.22 in921.8 mb 0.00 in0.0 mm 0.00 in0.0 mm 0.03 in0.8 mm
02:40 AM 50.5°F10.3°C 49.4°F9.7°C 96% 4.0 mph SSE6.4 kmh SSE 14.0 mph22.5 kmh 27.22 in921.8 mb 0.00 in0.0 mm 0.00 in0.0 mm 0.03 in0.8 mm
02:30 AM 50.5°F10.3°C 49.4°F9.7°C 96% 5.0 mph SSE8.0 kmh SSE 12.0 mph19.3 kmh 27.22 in921.8 mb 0.00 in0.0 mm 0.00 in0.0 mm 0.03 in0.8 mm
02:20 AM 50.5°F10.3°C 49.7°F9.8°C 97% 5.0 mph SE8.0 kmh SE 13.0 mph20.9 kmh 27.21 in921.4 mb 0.01 in0.3 mm 0.00 in0.0 mm 0.03 in0.8 mm
02:10 AM 50.5°F10.3°C 49.7°F9.8°C 97% 5.0 mph SSE8.0 kmh SSE 11.0 mph17.7 kmh 27.21 in921.4 mb 0.01 in0.3 mm 0.00 in0.0 mm 0.03 in0.8 mm
02:00 AM 50.5°F10.3°C 49.7°F9.8°C 97% 6.0 mph SSE9.7 kmh SSE 14.0 mph22.5 kmh 27.21 in921.4 mb 0.01 in0.3 mm 0.00 in0.0 mm 0.03 in0.8 mm
01:50 AM 50.5°F10.3°C 49.7°F9.8°C 97% 6.0 mph SSE9.7 kmh SSE 15.0 mph24.1 kmh 27.21 in921.4 mb 0.01 in0.3 mm 0.00 in0.0 mm 0.03 in0.8 mm
01:40 AM 50.6°F10.3°C 49.8°F9.9°C 97% 5.0 mph SSE8.0 kmh SSE 11.0 mph17.7 kmh 27.21 in921.4 mb 0.01 in0.3 mm 0.00 in0.0 mm 0.03 in0.8 mm
01:30 AM 50.6°F10.3°C 49.8°F9.9°C 97% 5.0 mph SSE8.0 kmh SSE 11.0 mph17.7 kmh 27.21 in921.4 mb 0.01 in0.3 mm 0.06 in1.5 mm 0.03 in0.8 mm
01:20 AM 50.6°F10.3°C 49.8°F9.9°C 97% 4.0 mph SSE6.4 kmh SSE 12.0 mph19.3 kmh 27.21 in921.4 mb 0.00 in0.0 mm 0.00 in0.0 mm 0.02 in0.5 mm
01:10 AM 50.6°F10.3°C 49.8°F9.9°C 97% 5.0 mph SSE8.0 kmh SSE 11.0 mph17.7 kmh 27.20 in921.1 mb 0.00 in0.0 mm 0.00 in0.0 mm 0.02 in0.5 mm
01:00 AM 50.6°F10.3°C 49.8°F9.9°C 97% 4.0 mph SSE6.4 kmh SSE 11.0 mph17.7 kmh 27.20 in921.1 mb 0.00 in0.0 mm 0.00 in0.0 mm 0.02 in0.5 mm
12:50 AM 50.6°F10.3°C 49.5°F9.7°C 96% 5.0 mph SE8.0 kmh SE 14.0 mph22.5 kmh 27.21 in921.4 mb 0.00 in0.0 mm 0.00 in0.0 mm 0.02 in0.5 mm
12:40 AM 50.6°F10.3°C 49.5°F9.7°C 96% 4.0 mph SSE6.4 kmh SSE 10.0 mph16.1 kmh 27.20 in921.1 mb 0.01 in0.3 mm 0.00 in0.0 mm 0.02 in0.5 mm
12:30 AM 50.6°F10.3°C 49.5°F9.7°C 96% 5.0 mph SE8.0 kmh SE 15.0 mph24.1 kmh 27.20 in921.1 mb 0.01 in0.3 mm 0.00 in0.0 mm 0.02 in0.5 mm
12:20 AM 50.7°F10.4°C 49.6°F9.8°C 96% 4.0 mph SSE6.4 kmh SSE 11.0 mph17.7 kmh 27.21 in921.4 mb 0.02 in0.5 mm 0.00 in0.0 mm 0.02 in0.5 mm
12:10 AM 50.6°F10.3°C 49.5°F9.7°C 96% 4.0 mph SSE6.4 kmh SSE 9.0 mph14.5 kmh 27.20 in921.1 mb 0.02 in0.5 mm 0.00 in0.0 mm 0.02 in0.5 mm
12:00 AM 50.7°F10.4°C 49.6°F9.8°C 96% 4.0 mph SE6.4 kmh SE 14.0 mph22.5 kmh 27.20 in921.1 mb 0.02 in0.5 mm 0.00 in0.0 mm 0.02 in0.5 mm